createdAt,value
2018-05-29T00:01:30.476Z,100987
2018-05-29T00:04:40.705Z,100983
2018-05-29T00:07:51.001Z,100983
2018-05-29T00:11:01.141Z,100977
2018-05-29T00:14:12.555Z,100977
2018-05-29T00:17:22.770Z,100969
2018-05-29T00:20:32.664Z,100965
2018-05-29T00:23:43.285Z,100961
2018-05-29T00:26:53.025Z,100957
2018-05-29T00:30:02.496Z,100952
2018-05-29T00:33:13.580Z,100949
2018-05-29T00:36:23.920Z,100948
2018-05-29T00:39:33.762Z,100954
2018-05-29T00:42:44.664Z,100956
2018-05-29T00:45:54.656Z,100950
2018-05-29T00:49:04.940Z,100950
2018-05-29T00:52:16.093Z,100946
2018-05-29T00:55:37.576Z,100950
2018-05-29T00:58:47.742Z,100947
2018-05-29T01:01:57.656Z,100953
2018-05-29T01:05:07.613Z,100954
2018-05-29T01:08:17.981Z,100952
2018-05-29T01:11:29.336Z,100958
2018-05-29T01:14:38.820Z,100958
2018-05-29T01:17:48.463Z,100954
2018-05-29T01:20:57.837Z,100950
2018-05-29T01:24:07.445Z,100951
2018-05-29T01:27:17.833Z,100949
2018-05-29T01:30:27.908Z,100945
2018-05-29T01:33:37.920Z,100952
2018-05-29T01:36:47.359Z,100945
2018-05-29T01:39:56.801Z,100938
2018-05-29T01:43:06.682Z,100941
2018-05-29T01:46:19.097Z,100943
2018-05-29T01:49:28.463Z,100934
2018-05-29T01:52:38.451Z,100935
2018-05-29T01:55:48.424Z,100934
2018-05-29T01:58:57.917Z,100930
2018-05-29T02:02:08.123Z,100929
2018-05-29T02:05:20.217Z,100926
2018-05-29T02:08:30.685Z,100922
2018-05-29T02:11:40.022Z,100925
2018-05-29T02:14:50.228Z,100925
2018-05-29T02:18:00.486Z,100919
2018-05-29T02:21:09.977Z,100920
2018-05-29T02:24:21.275Z,100918
2018-05-29T02:27:30.744Z,100920
2018-05-29T02:30:41.016Z,100918
2018-05-29T02:33:51.584Z,100913
2018-05-29T02:37:00.875Z,100913
2018-05-29T02:40:10.558Z,100907
2018-05-29T02:43:21.353Z,100907
2018-05-29T02:46:31.881Z,100910
2018-05-29T02:49:41.642Z,100907
2018-05-29T02:52:51.744Z,100907
2018-05-29T02:56:01.313Z,100906
2018-05-29T02:59:10.803Z,100900
2018-05-29T03:02:22.424Z,100900
2018-05-29T03:05:33.488Z,100901
2018-05-29T03:08:43.684Z,100898
2018-05-29T03:11:53.556Z,100902
2018-05-29T03:15:03.416Z,100899
2018-05-29T03:18:16.091Z,100902
2018-05-29T03:21:25.847Z,100897
2018-05-29T03:24:35.735Z,100900
2018-05-29T03:27:45.848Z,100888
2018-05-29T03:30:55.296Z,100885
2018-05-29T03:34:04.984Z,100885
2018-05-29T03:37:15.132Z,100889
2018-05-29T03:40:25.440Z,100887
2018-05-29T03:43:35.226Z,100891
2018-05-29T03:46:45.518Z,100885
2018-05-29T03:49:55.015Z,100886
2018-05-29T03:53:05.116Z,100887
2018-05-29T03:56:14.990Z,100894
2018-05-29T03:59:25.220Z,100892
2018-05-29T04:02:34.653Z,100891
2018-05-29T04:05:45.106Z,100886
2018-05-29T04:08:54.741Z,100894
2018-05-29T04:12:05.100Z,100889
2018-05-29T04:15:15.269Z,100894
2018-05-29T04:18:26.112Z,100891
2018-05-29T04:21:35.900Z,100884
2018-05-29T04:24:45.608Z,100884
2018-05-29T04:27:55.826Z,100885
2018-05-29T04:31:05.191Z,100886
2018-05-29T04:34:14.549Z,100885
2018-05-29T04:37:27.165Z,100882
2018-05-29T04:40:37.529Z,100889
2018-05-29T04:43:47.000Z,100885
2018-05-29T04:46:56.970Z,100884
2018-05-29T04:50:06.685Z,100885
2018-05-29T04:53:16.198Z,100880
2018-05-29T04:56:27.689Z,100874
2018-05-29T04:59:37.569Z,100873
2018-05-29T05:02:46.897Z,100870
2018-05-29T05:05:56.449Z,100866
2018-05-29T05:09:05.968Z,100870
2018-05-29T05:12:16.049Z,100867
2018-05-29T05:15:26.393Z,100874
2018-05-29T05:18:36.461Z,100876
2018-05-29T05:21:46.031Z,100876
2018-05-29T05:24:55.470Z,100872
2018-05-29T05:28:04.968Z,100868
2018-05-29T05:31:14.416Z,100873
2018-05-29T05:34:24.680Z,100873
2018-05-29T05:37:35.252Z,100870
2018-05-29T05:40:45.155Z,100872
2018-05-29T05:43:55.028Z,100875
2018-05-29T05:47:04.407Z,100874
2018-05-29T05:50:13.749Z,100874
2018-05-29T05:53:23.673Z,100866
2018-05-29T05:56:33.923Z,100857
2018-05-29T05:59:44.259Z,100859
2018-05-29T06:02:53.596Z,100853
2018-05-29T06:06:03.188Z,100851
2018-05-29T06:09:12.596Z,100852
2018-05-29T06:12:22.066Z,100851
2018-05-29T06:15:32.772Z,100846
2018-05-29T06:18:42.200Z,100848
2018-05-29T06:21:53.163Z,100843
2018-05-29T06:25:03.477Z,100845
2018-05-29T06:28:12.933Z,100849
2018-05-29T06:31:22.456Z,100851
2018-05-29T06:34:32.632Z,100849
2018-05-29T06:37:42.218Z,100845
2018-05-29T06:40:52.464Z,100845
2018-05-29T06:44:01.917Z,100841
2018-05-29T06:47:12.281Z,100835
2018-05-29T06:50:22.593Z,100839
2018-05-29T06:53:32.610Z,100839
2018-05-29T06:56:42.129Z,100843
2018-05-29T06:59:51.557Z,100848
2018-05-29T07:03:01.776Z,100845
2018-05-29T07:06:11.725Z,100842
2018-05-29T07:09:38.553Z,100833
2018-05-29T07:12:48.300Z,100831
2018-05-29T07:15:57.680Z,100831
2018-05-29T07:19:07.857Z,100823
2018-05-29T07:22:18.049Z,100824
2018-05-29T07:25:27.557Z,100817
2018-05-29T07:28:36.809Z,100808
2018-05-29T07:31:46.866Z,100805
2018-05-29T07:34:56.861Z,100802
2018-05-29T07:38:07.124Z,100799
2018-05-29T07:41:16.458Z,100794
2018-05-29T07:44:25.804Z,100788
2018-05-29T07:47:35.149Z,100784
2018-05-29T07:50:44.648Z,100779
2018-05-29T07:53:54.178Z,100786
2018-05-29T07:57:03.917Z,100779
2018-05-29T08:00:14.137Z,100771
2018-05-29T08:03:23.854Z,100778
2018-05-29T08:06:34.073Z,100778
2018-05-29T08:09:43.943Z,100771
2018-05-29T08:12:53.416Z,100764
2018-05-29T08:16:02.896Z,100770
2018-05-29T08:19:12.651Z,100760
2018-05-29T08:22:22.824Z,100762
2018-05-29T08:25:32.654Z,100767
2018-05-29T08:28:42.033Z,100761
2018-05-29T08:31:51.285Z,100758
2018-05-29T08:35:00.813Z,100755
2018-05-29T08:38:10.976Z,100752
2018-05-29T08:41:21.128Z,100741
2018-05-29T08:44:30.434Z,100736
2018-05-29T08:47:39.895Z,100722
2018-05-29T08:50:49.352Z,100720
2018-05-29T08:53:58.733Z,100725
2018-05-29T08:57:08.291Z,100716
2018-05-29T09:00:17.746Z,100712
2018-05-29T09:03:27.032Z,100710
2018-05-29T09:06:36.552Z,100708
2018-05-29T09:09:45.840Z,100706
2018-05-29T09:12:55.228Z,100694
2018-05-29T09:16:04.654Z,100696
2018-05-29T09:19:13.966Z,100685
2018-05-29T09:22:23.329Z,100678
2018-05-29T09:25:33.453Z,100682
2018-05-29T09:28:42.762Z,100679
2018-05-29T09:31:52.088Z,100679
2018-05-29T09:35:02.328Z,100671
2018-05-29T09:38:12.630Z,100668
2018-05-29T09:41:22.060Z,100663
2018-05-29T09:44:31.598Z,100659
2018-05-29T09:47:41.004Z,100660
2018-05-29T09:50:50.460Z,100659
2018-05-29T09:53:59.940Z,100659
2018-05-29T09:57:09.433Z,100657
2018-05-29T10:00:25.212Z,100646
2018-05-29T10:03:34.549Z,100658
2018-05-29T10:06:43.884Z,100652
2018-05-29T10:09:53.960Z,100650
2018-05-29T10:13:03.189Z,100641
2018-05-29T10:16:12.493Z,100639
2018-05-29T10:19:21.808Z,100635
2018-05-29T10:22:31.252Z,100637
2018-05-29T10:25:40.704Z,100621
2018-05-29T10:28:51.673Z,100628
2018-05-29T10:32:01.021Z,100632
2018-05-29T10:35:10.577Z,100625
2018-05-29T10:38:20.016Z,100619
2018-05-29T10:41:29.580Z,100619
2018-05-29T10:44:39.748Z,100622
2018-05-29T10:47:49.992Z,100619
2018-05-29T10:50:59.477Z,100609
2018-05-29T10:54:08.969Z,100603
2018-05-29T10:57:18.882Z,100604
2018-05-29T11:00:28.961Z,100599
2018-05-29T11:03:39.297Z,100593
2018-05-29T11:06:49.648Z,100592
2018-05-29T11:09:58.946Z,100599
2018-05-29T11:13:08.724Z,100598
2018-05-29T11:16:18.737Z,100588
2018-05-29T11:19:28.904Z,100591
2018-05-29T11:22:38.214Z,100593
2018-05-29T11:25:47.502Z,100583
2018-05-29T11:28:56.928Z,100574
2018-05-29T11:32:06.406Z,100581
2018-05-29T11:35:15.881Z,100586
2018-05-29T11:38:26.158Z,100579
2018-05-29T11:41:35.499Z,100579
2018-05-29T11:44:45.911Z,100569
2018-05-29T11:47:55.362Z,100568
2018-05-29T11:51:06.037Z,100568
2018-05-29T11:54:16.300Z,100566
2018-05-29T11:57:25.660Z,100554
2018-05-29T12:00:35.008Z,100558
2018-05-29T12:03:44.518Z,100557
2018-05-29T12:06:53.840Z,100551
2018-05-29T12:10:03.321Z,100537
2018-05-29T12:13:12.753Z,100530
2018-05-29T12:16:22.220Z,100534
2018-05-29T12:19:31.701Z,100537
2018-05-29T12:22:41.433Z,100531
2018-05-29T12:25:50.860Z,100534
2018-05-29T12:29:00.264Z,100516
2018-05-29T12:32:09.576Z,100505
2018-05-29T12:35:19.039Z,100500
2018-05-29T12:38:28.443Z,100504
2018-05-29T12:41:38.089Z,100507
2018-05-29T12:44:47.456Z,100504
2018-05-29T12:47:56.785Z,100511
2018-05-29T12:51:06.285Z,100509
2018-05-29T12:54:16.494Z,100514
2018-05-29T12:57:26.177Z,100515
2018-05-29T13:00:36.297Z,100491
2018-05-29T13:03:46.509Z,100489
2018-05-29T13:06:55.817Z,100469
2018-05-29T13:10:05.297Z,100456
2018-05-29T13:13:14.765Z,100467
2018-05-29T13:16:24.393Z,100458
2018-05-29T13:19:34.633Z,100449
2018-05-29T13:22:44.018Z,100463
2018-05-29T13:25:53.551Z,100462
2018-05-29T13:29:03.665Z,100464
2018-05-29T13:32:16.828Z,100463
2018-05-29T13:35:26.204Z,100457
2018-05-29T13:38:35.695Z,100455
2018-05-29T13:41:44.994Z,100449
2018-05-29T13:44:54.273Z,100435
2018-05-29T13:48:03.645Z,100440
2018-05-29T13:51:13.108Z,100443
2018-05-29T13:54:22.549Z,100427
2018-05-29T13:57:32.929Z,100427
2018-05-29T14:00:42.360Z,100424
2018-05-29T14:03:51.740Z,100432
2018-05-29T14:07:01.105Z,100443
2018-05-29T14:10:10.560Z,100445
2018-05-29T14:13:20.098Z,100457
2018-05-29T14:16:30.289Z,100469
2018-05-29T14:19:39.595Z,100475
2018-05-29T14:22:49.155Z,100476
2018-05-29T14:25:58.432Z,100467
2018-05-29T14:29:07.919Z,100461
2018-05-29T14:32:17.367Z,100455
2018-05-29T14:35:26.701Z,100459
2018-05-29T14:38:36.133Z,100444
2018-05-29T14:41:45.522Z,100439
2018-05-29T14:44:55.513Z,100434
2018-05-29T14:48:04.961Z,100431
2018-05-29T14:51:14.412Z,100415
2018-05-29T14:54:23.887Z,100412
2018-05-29T14:57:33.381Z,100418
2018-05-29T15:00:42.832Z,100419
2018-05-29T15:03:52.527Z,100424
2018-05-29T15:07:01.721Z,100420
2018-05-29T15:10:12.396Z,100411
2018-05-29T15:13:21.860Z,100416
2018-05-29T15:16:31.409Z,100428
2018-05-29T15:19:40.859Z,100429
2018-05-29T15:22:50.631Z,100432
2018-05-29T15:26:00.920Z,100430
2018-05-29T15:29:11.717Z,100431
2018-05-29T15:32:21.541Z,100430
2018-05-29T15:35:30.815Z,100438
2018-05-29T15:38:40.381Z,100426
2018-05-29T15:41:50.621Z,100420
2018-05-29T15:45:00.001Z,100403
2018-05-29T15:48:10.097Z,100404
2018-05-29T15:51:20.424Z,100418
2018-05-29T15:54:30.271Z,100413
2018-05-29T15:57:40.725Z,100404
2018-05-29T16:00:51.786Z,100419
2018-05-29T16:04:01.360Z,100425
2018-05-29T16:07:15.806Z,100421
2018-05-29T16:10:25.457Z,100417
2018-05-29T16:13:35.807Z,100430
2018-05-29T16:16:45.733Z,100430
2018-05-29T16:19:56.033Z,100433
2018-05-29T16:23:06.070Z,100432
2018-05-29T16:26:16.198Z,100447
2018-05-29T16:29:25.640Z,100458
2018-05-29T16:32:35.316Z,100494
2018-05-29T16:35:45.258Z,100490
2018-05-29T16:38:55.008Z,100493
2018-05-29T16:42:04.422Z,100492
2018-05-29T16:45:18.002Z,100500
2018-05-29T16:48:27.601Z,100485
2018-05-29T16:51:38.761Z,100489
2018-05-29T16:54:48.628Z,100490
2018-05-29T16:57:59.319Z,100471
2018-05-29T17:01:08.570Z,100475
2018-05-29T17:04:19.461Z,100479
2018-05-29T17:07:29.083Z,100517
2018-05-29T17:10:39.023Z,100569
2018-05-29T17:13:49.129Z,100616
2018-05-29T17:16:59.768Z,100624
2018-05-29T17:20:10.274Z,100617
2018-05-29T17:23:20.682Z,100625
2018-05-29T17:26:30.165Z,100611
2018-05-29T17:29:40.454Z,100600
2018-05-29T17:32:49.956Z,100595
2018-05-29T17:36:00.028Z,100573
2018-05-29T17:39:10.311Z,100571
2018-05-29T17:42:19.917Z,100566
2018-05-29T17:45:30.065Z,100538
2018-05-29T17:48:39.711Z,100526
2018-05-29T17:51:49.680Z,100543
2018-05-29T17:55:01.152Z,100547
2018-05-29T17:58:11.060Z,100531
2018-05-29T18:01:20.711Z,100548
2018-05-29T18:04:31.694Z,100585
2018-05-29T18:07:41.394Z,100598
2018-05-29T18:10:51.205Z,100594
2018-05-29T18:14:01.328Z,100595
2018-05-29T18:17:12.100Z,100598
2018-05-29T18:20:22.024Z,100601
2018-05-29T18:23:33.612Z,100601
2018-05-29T18:26:46.841Z,100597
2018-05-29T18:30:01.457Z,100588
2018-05-29T18:33:12.683Z,100582
2018-05-29T18:36:24.312Z,100590
2018-05-29T18:39:36.538Z,100599
2018-05-29T18:42:46.456Z,100612
2018-05-29T18:45:56.408Z,100628
2018-05-29T18:49:08.479Z,100634
2018-05-29T18:52:18.128Z,100640
2018-05-29T18:55:28.185Z,100642
2018-05-29T18:58:39.400Z,100642
2018-05-29T19:01:49.872Z,100636
2018-05-29T19:05:00.091Z,100635
2018-05-29T19:08:10.548Z,100637
2018-05-29T19:11:25.799Z,100641
2018-05-29T19:14:35.623Z,100653
2018-05-29T19:17:45.606Z,100647
2018-05-29T19:20:57.153Z,100649
2018-05-29T19:24:08.613Z,100650
2018-05-29T19:27:18.682Z,100650
2018-05-29T19:30:28.550Z,100645
2018-05-29T19:33:38.425Z,100657
2018-05-29T19:36:49.907Z,100657
2018-05-29T19:39:59.771Z,100655
2018-05-29T19:43:09.861Z,100659
2018-05-29T19:46:19.282Z,100658
2018-05-29T19:49:29.948Z,100663
2018-05-29T19:52:39.263Z,100657
2018-05-29T19:55:48.936Z,100656
2018-05-29T19:58:59.481Z,100657
2018-05-29T20:02:10.191Z,100647
2018-05-29T20:05:20.085Z,100641
2018-05-29T20:08:30.161Z,100638
2018-05-29T20:11:40.419Z,100627
2018-05-29T20:14:49.879Z,100616
2018-05-29T20:18:00.028Z,100619
2018-05-29T20:21:10.605Z,100621
2018-05-29T20:24:20.225Z,100618
2018-05-29T20:27:30.073Z,100620
2018-05-29T20:30:40.272Z,100616
2018-05-29T20:33:50.101Z,100616
2018-05-29T20:37:01.003Z,100625
2018-05-29T20:40:13.721Z,100630
2018-05-29T20:43:23.829Z,100632
2018-05-29T20:46:33.198Z,100635
2018-05-29T20:49:42.661Z,100637
2018-05-29T20:52:52.180Z,100649
2018-05-29T20:56:01.940Z,100650
2018-05-29T20:59:12.127Z,100653
2018-05-29T21:02:21.501Z,100669
2018-05-29T21:05:32.027Z,100671
2018-05-29T21:08:42.072Z,100673
2018-05-29T21:11:51.616Z,100671
2018-05-29T21:15:02.874Z,100674
2018-05-29T21:18:13.832Z,100656
2018-05-29T21:21:24.158Z,100665
2018-05-29T21:24:34.021Z,100671
2018-05-29T21:27:44.221Z,100679
2018-05-29T21:30:54.540Z,100675
2018-05-29T21:34:04.026Z,100672
2018-05-29T21:37:14.252Z,100663
2018-05-29T21:40:23.860Z,100652
2018-05-29T21:43:33.685Z,100653
2018-05-29T21:46:43.996Z,100659
2018-05-29T21:49:54.132Z,100669
2018-05-29T21:53:03.950Z,100671
2018-05-29T21:56:14.777Z,100661
2018-05-29T21:59:25.069Z,100674
2018-05-29T22:02:34.811Z,100685
2018-05-29T22:05:44.973Z,100699
2018-05-29T22:08:55.086Z,100697
2018-05-29T22:12:05.622Z,100696
2018-05-29T22:15:16.243Z,100701
2018-05-29T22:18:25.768Z,100706
2018-05-29T22:21:35.885Z,100722
2018-05-29T22:24:46.600Z,100722
2018-05-29T22:27:55.998Z,100730
2018-05-29T22:31:06.169Z,100722
2018-05-29T22:34:17.258Z,100726
2018-05-29T22:37:26.688Z,100732
2018-05-29T22:40:37.069Z,100733
2018-05-29T22:43:46.520Z,100732
2018-05-29T22:46:56.868Z,100742
2018-05-29T22:50:06.316Z,100765
2018-05-29T22:53:18.130Z,100777
2018-05-29T22:56:28.042Z,100800
2018-05-29T22:59:37.898Z,100812
2018-05-29T23:02:47.207Z,100818
2018-05-29T23:05:57.420Z,100816
2018-05-29T23:09:07.656Z,100807
2018-05-29T23:12:19.457Z,100807
2018-05-29T23:15:29.504Z,100804
2018-05-29T23:18:39.203Z,100800
2018-05-29T23:21:49.166Z,100792
2018-05-29T23:24:59.401Z,100790
2018-05-29T23:28:09.690Z,100785
2018-05-29T23:31:20.348Z,100776
2018-05-29T23:34:30.340Z,100779
2018-05-29T23:37:40.256Z,100780
2018-05-29T23:40:50.496Z,100783
2018-05-29T23:43:59.924Z,100767
2018-05-29T23:47:09.738Z,100791
2018-05-29T23:50:21.134Z,100789
2018-05-29T23:53:31.110Z,100791
2018-05-29T23:56:40.465Z,100776
2018-05-29T23:59:50.296Z,100769
